sensor_id;sensor_type;location;lat;lon;timestamp;temperature;humidity
41427;DHT22;27171;51.812;19.514;2022-12-07T00:02:43;1.80;99.90
41427;DHT22;27171;51.812;19.514;2022-12-07T00:05:44;1.90;99.90
41427;DHT22;27171;51.812;19.514;2022-12-07T00:08:46;1.80;99.90
41427;DHT22;27171;51.812;19.514;2022-12-07T00:11:50;1.80;99.90
41427;DHT22;27171;51.812;19.514;2022-12-07T00:14:51;1.80;99.90
41427;DHT22;27171;51.812;19.514;2022-12-07T00:17:52;1.80;99.90
41427;DHT22;27171;51.812;19.514;2022-12-07T00:20:53;1.80;99.90
41427;DHT22;27171;51.812;19.514;2022-12-07T00:23:59;1.80;99.90
41427;DHT22;27171;51.812;19.514;2022-12-07T00:27:01;1.80;99.90
41427;DHT22;27171;51.812;19.514;2022-12-07T00:30:02;1.80;99.90
41427;DHT22;27171;51.812;19.514;2022-12-07T00:33:04;1.80;99.90
41427;DHT22;27171;51.812;19.514;2022-12-07T00:36:08;1.80;99.90
41427;DHT22;27171;51.812;19.514;2022-12-07T00:39:10;1.80;99.90
41427;DHT22;27171;51.812;19.514;2022-12-07T00:42:11;1.80;99.90
41427;DHT22;27171;51.812;19.514;2022-12-07T00:45:12;1.80;99.90
41427;DHT22;27171;51.812;19.514;2022-12-07T00:48:13;1.80;99.90
41427;DHT22;27171;51.812;19.514;2022-12-07T00:51:15;1.80;99.90
41427;DHT22;27171;51.812;19.514;2022-12-07T00:54:16;1.80;99.90
41427;DHT22;27171;51.812;19.514;2022-12-07T00:57:17;1.80;99.90
41427;DHT22;27171;51.812;19.514;2022-12-07T01:00:18;1.80;99.90
41427;DHT22;27171;51.812;19.514;2022-12-07T01:03:19;1.80;99.90
41427;DHT22;27171;51.812;19.514;2022-12-07T01:06:22;1.80;99.90
41427;DHT22;27171;51.812;19.514;2022-12-07T01:09:24;1.80;99.90
41427;DHT22;27171;51.812;19.514;2022-12-07T01:12:25;1.70;99.90
41427;DHT22;27171;51.812;19.514;2022-12-07T01:15:26;1.80;99.90
41427;DHT22;27171;51.812;19.514;2022-12-07T01:18:28;1.80;99.90
41427;DHT22;27171;51.812;19.514;2022-12-07T01:21:31;1.80;99.90
41427;DHT22;27171;51.812;19.514;2022-12-07T01:24:33;1.80;99.90
41427;DHT22;27171;51.812;19.514;2022-12-07T01:27:34;1.70;99.90
41427;DHT22;27171;51.812;19.514;2022-12-07T01:30:36;1.80;99.90
41427;DHT22;27171;51.812;19.514;2022-12-07T01:33:37;1.70;99.90
41427;DHT22;27171;51.812;19.514;2022-12-07T01:36:38;1.70;99.90
41427;DHT22;27171;51.812;19.514;2022-12-07T01:39:40;1.70;99.90
41427;DHT22;27171;51.812;19.514;2022-12-07T01:42:41;1.70;99.90
41427;DHT22;27171;51.812;19.514;2022-12-07T01:45:42;1.70;99.90
41427;DHT22;27171;51.812;19.514;2022-12-07T01:48:43;1.70;99.90
41427;DHT22;27171;51.812;19.514;2022-12-07T01:51:45;1.70;99.90
41427;DHT22;27171;51.812;19.514;2022-12-07T01:54:48;1.70;99.90
41427;DHT22;27171;51.812;19.514;2022-12-07T01:57:52;1.70;99.90
41427;DHT22;27171;51.812;19.514;2022-12-07T02:00:54;1.70;99.90
41427;DHT22;27171;51.812;19.514;2022-12-07T02:03:55;1.70;99.90
41427;DHT22;27171;51.812;19.514;2022-12-07T02:06:57;1.70;99.90
41427;DHT22;27171;51.812;19.514;2022-12-07T02:10:18;1.70;99.90
41427;DHT22;27171;51.812;19.514;2022-12-07T02:13:22;1.70;99.90
41427;DHT22;27171;51.812;19.514;2022-12-07T02:29:22;1.70;99.90
41427;DHT22;27171;51.812;19.514;2022-12-07T02:32:28;1.70;99.90
41427;DHT22;27171;51.812;19.514;2022-12-07T02:35:35;1.70;99.90
41427;DHT22;27171;51.812;19.514;2022-12-07T02:42:40;1.70;99.90
41427;DHT22;27171;51.812;19.514;2022-12-07T02:45:35;1.70;99.90
41427;DHT22;27171;51.812;19.514;2022-12-07T02:48:40;1.70;99.90
41427;DHT22;27171;51.812;19.514;2022-12-07T02:51:44;1.70;99.90
41427;DHT22;27171;51.812;19.514;2022-12-07T02:54:46;1.70;99.90
41427;DHT22;27171;51.812;19.514;2022-12-07T02:58:11;1.70;99.90
41427;DHT22;27171;51.812;19.514;2022-12-07T03:05:08;1.70;99.90
41427;DHT22;27171;51.812;19.514;2022-12-07T03:14:58;1.70;99.90
41427;DHT22;27171;51.812;19.514;2022-12-07T03:18:02;1.70;99.90
41427;DHT22;27171;51.812;19.514;2022-12-07T03:21:11;1.70;99.90
41427;DHT22;27171;51.812;19.514;2022-12-07T03:24:17;1.70;99.90
41427;DHT22;27171;51.812;19.514;2022-12-07T03:27:23;1.60;99.90
41427;DHT22;27171;51.812;19.514;2022-12-07T03:30:43;1.70;99.90
41427;DHT22;27171;51.812;19.514;2022-12-07T03:34:06;1.70;99.90
41427;DHT22;27171;51.812;19.514;2022-12-07T03:37:26;1.60;99.90
41427;DHT22;27171;51.812;19.514;2022-12-07T03:43:49;1.60;99.90
41427;DHT22;27171;51.812;19.514;2022-12-07T03:50:33;1.60;99.90
41427;DHT22;27171;51.812;19.514;2022-12-07T03:53:44;1.60;99.90
41427;DHT22;27171;51.812;19.514;2022-12-07T03:56:48;1.60;99.90
41427;DHT22;27171;51.812;19.514;2022-12-07T03:59:51;1.60;99.90
41427;DHT22;27171;51.812;19.514;2022-12-07T04:02:53;1.60;99.90
41427;DHT22;27171;51.812;19.514;2022-12-07T04:05:54;1.60;99.90
41427;DHT22;27171;51.812;19.514;2022-12-07T04:08:55;1.60;99.90
41427;DHT22;27171;51.812;19.514;2022-12-07T04:11:56;1.60;99.90
41427;DHT22;27171;51.812;19.514;2022-12-07T04:14:57;1.60;99.90
41427;DHT22;27171;51.812;19.514;2022-12-07T04:17:58;1.60;99.90
41427;DHT22;27171;51.812;19.514;2022-12-07T04:20:59;1.60;99.90
41427;DHT22;27171;51.812;19.514;2022-12-07T04:24:00;1.60;99.90
41427;DHT22;27171;51.812;19.514;2022-12-07T04:27:02;1.60;99.90
41427;DHT22;27171;51.812;19.514;2022-12-07T04:30:03;1.50;99.90
41427;DHT22;27171;51.812;19.514;2022-12-07T04:33:05;1.50;99.90
41427;DHT22;27171;51.812;19.514;2022-12-07T04:36:05;1.50;99.90
41427;DHT22;27171;51.812;19.514;2022-12-07T04:39:09;1.50;99.90
41427;DHT22;27171;51.812;19.514;2022-12-07T04:42:14;1.50;99.90
41427;DHT22;27171;51.812;19.514;2022-12-07T04:45:15;1.40;99.90
41427;DHT22;27171;51.812;19.514;2022-12-07T04:48:16;1.50;99.90
41427;DHT22;27171;51.812;19.514;2022-12-07T04:51:28;1.50;99.90
41427;DHT22;27171;51.812;19.514;2022-12-07T04:54:29;1.40;99.90
41427;DHT22;27171;51.812;19.514;2022-12-07T04:57:30;1.40;99.90
41427;DHT22;27171;51.812;19.514;2022-12-07T05:00:31;1.40;99.90
41427;DHT22;27171;51.812;19.514;2022-12-07T05:03:33;1.40;99.90
41427;DHT22;27171;51.812;19.514;2022-12-07T05:06:34;1.40;99.90
41427;DHT22;27171;51.812;19.514;2022-12-07T05:09:35;1.40;99.90
41427;DHT22;27171;51.812;19.514;2022-12-07T05:12:36;1.40;99.90
41427;DHT22;27171;51.812;19.514;2022-12-07T05:15:37;1.40;99.90
41427;DHT22;27171;51.812;19.514;2022-12-07T05:18:38;1.40;99.90
41427;DHT22;27171;51.812;19.514;2022-12-07T05:21:39;1.50;99.90
41427;DHT22;27171;51.812;19.514;2022-12-07T05:24:40;1.50;99.90
41427;DHT22;27171;51.812;19.514;2022-12-07T05:27:41;1.40;99.90
41427;DHT22;27171;51.812;19.514;2022-12-07T05:30:42;1.50;99.90
41427;DHT22;27171;51.812;19.514;2022-12-07T05:33:43;1.50;99.90
41427;DHT22;27171;51.812;19.514;2022-12-07T05:36:44;1.50;99.90
41427;DHT22;27171;51.812;19.514;2022-12-07T05:39:45;1.40;99.90
41427;DHT22;27171;51.812;19.514;2022-12-07T05:42:46;1.50;99.90
41427;DHT22;27171;51.812;19.514;2022-12-07T05:45:48;1.40;99.90
41427;DHT22;27171;51.812;19.514;2022-12-07T05:48:49;1.40;99.90
41427;DHT22;27171;51.812;19.514;2022-12-07T05:51:50;1.40;99.90
41427;DHT22;27171;51.812;19.514;2022-12-07T05:54:51;1.50;99.90
41427;DHT22;27171;51.812;19.514;2022-12-07T05:57:52;1.40;99.90
41427;DHT22;27171;51.812;19.514;2022-12-07T06:00:56;1.40;99.90
41427;DHT22;27171;51.812;19.514;2022-12-07T06:03:57;1.50;99.90
41427;DHT22;27171;51.812;19.514;2022-12-07T06:06:58;1.40;99.90
41427;DHT22;27171;51.812;19.514;2022-12-07T06:09:59;1.40;99.90
41427;DHT22;27171;51.812;19.514;2022-12-07T06:13:00;1.40;99.90
41427;DHT22;27171;51.812;19.514;2022-12-07T06:16:01;1.40;99.90
41427;DHT22;27171;51.812;19.514;2022-12-07T06:19:03;1.40;99.90
41427;DHT22;27171;51.812;19.514;2022-12-07T06:22:04;1.40;99.90
41427;DHT22;27171;51.812;19.514;2022-12-07T06:25:06;1.40;99.90
41427;DHT22;27171;51.812;19.514;2022-12-07T06:28:07;1.40;99.90
41427;DHT22;27171;51.812;19.514;2022-12-07T06:31:08;1.40;99.90
41427;DHT22;27171;51.812;19.514;2022-12-07T06:34:13;1.40;99.90
41427;DHT22;27171;51.812;19.514;2022-12-07T06:37:14;1.40;99.90
41427;DHT22;27171;51.812;19.514;2022-12-07T06:40:15;1.40;99.90
41427;DHT22;27171;51.812;19.514;2022-12-07T06:43:16;1.50;99.90
41427;DHT22;27171;51.812;19.514;2022-12-07T06:46:18;1.50;99.90
41427;DHT22;27171;51.812;19.514;2022-12-07T06:49:19;1.50;99.90
41427;DHT22;27171;51.812;19.514;2022-12-07T06:52:20;1.50;99.90
41427;DHT22;27171;51.812;19.514;2022-12-07T06:55:21;1.60;99.90
41427;DHT22;27171;51.812;19.514;2022-12-07T06:58:22;1.60;99.90
41427;DHT22;27171;51.812;19.514;2022-12-07T07:01:23;1.60;99.90
41427;DHT22;27171;51.812;19.514;2022-12-07T07:04:24;1.70;99.90
41427;DHT22;27171;51.812;19.514;2022-12-07T07:07:25;1.70;99.90
41427;DHT22;27171;51.812;19.514;2022-12-07T07:10:26;1.70;99.90
41427;DHT22;27171;51.812;19.514;2022-12-07T07:13:27;1.70;99.90
41427;DHT22;27171;51.812;19.514;2022-12-07T07:16:29;1.70;99.90
41427;DHT22;27171;51.812;19.514;2022-12-07T07:19:31;1.80;99.90
41427;DHT22;27171;51.812;19.514;2022-12-07T07:22:32;1.80;99.90
41427;DHT22;27171;51.812;19.514;2022-12-07T07:25:33;1.80;99.90
41427;DHT22;27171;51.812;19.514;2022-12-07T07:28:34;1.80;99.90
41427;DHT22;27171;51.812;19.514;2022-12-07T07:31:35;1.90;99.90
41427;DHT22;27171;51.812;19.514;2022-12-07T07:34:36;1.90;99.90
41427;DHT22;27171;51.812;19.514;2022-12-07T07:37:37;1.90;99.90
41427;DHT22;27171;51.812;19.514;2022-12-07T07:40:38;1.90;99.90
41427;DHT22;27171;51.812;19.514;2022-12-07T07:43:39;1.90;99.90
41427;DHT22;27171;51.812;19.514;2022-12-07T07:46:41;1.90;99.90
41427;DHT22;27171;51.812;19.514;2022-12-07T07:49:42;1.90;99.90
41427;DHT22;27171;51.812;19.514;2022-12-07T07:52:44;2.00;99.90
41427;DHT22;27171;51.812;19.514;2022-12-07T07:55:52;1.90;99.90
41427;DHT22;27171;51.812;19.514;2022-12-07T07:58:54;2.00;99.90
41427;DHT22;27171;51.812;19.514;2022-12-07T08:01:55;2.00;99.90
41427;DHT22;27171;51.812;19.514;2022-12-07T08:04:56;2.10;99.90
41427;DHT22;27171;51.812;19.514;2022-12-07T08:07:57;2.10;99.90
41427;DHT22;27171;51.812;19.514;2022-12-07T08:10:58;2.10;99.90
41427;DHT22;27171;51.812;19.514;2022-12-07T08:13:59;2.10;99.90
41427;DHT22;27171;51.812;19.514;2022-12-07T08:17:00;2.10;99.90
41427;DHT22;27171;51.812;19.514;2022-12-07T08:20:02;2.10;99.90
41427;DHT22;27171;51.812;19.514;2022-12-07T08:23:03;2.10;99.90
41427;DHT22;27171;51.812;19.514;2022-12-07T08:26:09;2.10;99.90
41427;DHT22;27171;51.812;19.514;2022-12-07T08:29:11;2.10;99.90
41427;DHT22;27171;51.812;19.514;2022-12-07T08:32:12;2.10;99.90
41427;DHT22;27171;51.812;19.514;2022-12-07T08:35:13;2.10;99.90
41427;DHT22;27171;51.812;19.514;2022-12-07T08:38:14;2.10;99.90
41427;DHT22;27171;51.812;19.514;2022-12-07T08:41:15;2.00;99.90
41427;DHT22;27171;51.812;19.514;2022-12-07T08:44:16;2.10;99.90
41427;DHT22;27171;51.812;19.514;2022-12-07T08:47:18;2.00;99.90
41427;DHT22;27171;51.812;19.514;2022-12-07T08:50:20;2.00;99.90
41427;DHT22;27171;51.812;19.514;2022-12-07T08:53:21;2.10;99.90
41427;DHT22;27171;51.812;19.514;2022-12-07T08:56:23;2.10;99.90
41427;DHT22;27171;51.812;19.514;2022-12-07T08:59:24;2.10;99.90
41427;DHT22;27171;51.812;19.514;2022-12-07T09:02:26;2.10;99.90
41427;DHT22;27171;51.812;19.514;2022-12-07T09:05:27;2.20;99.90
41427;DHT22;27171;51.812;19.514;2022-12-07T09:08:33;2.20;99.90
41427;DHT22;27171;51.812;19.514;2022-12-07T09:11:35;2.20;99.90
41427;DHT22;27171;51.812;19.514;2022-12-07T09:14:36;2.20;99.90
41427;DHT22;27171;51.812;19.514;2022-12-07T09:17:37;2.20;99.90
41427;DHT22;27171;51.812;19.514;2022-12-07T09:20:38;2.20;99.90
41427;DHT22;27171;51.812;19.514;2022-12-07T09:23:41;2.10;99.90
41427;DHT22;27171;51.812;19.514;2022-12-07T09:26:43;2.10;99.90
41427;DHT22;27171;51.812;19.514;2022-12-07T09:29:44;2.10;99.90
41427;DHT22;27171;51.812;19.514;2022-12-07T09:32:45;2.10;99.90
41427;DHT22;27171;51.812;19.514;2022-12-07T09:35:50;2.10;99.90
41427;DHT22;27171;51.812;19.514;2022-12-07T09:38:51;2.10;99.90
41427;DHT22;27171;51.812;19.514;2022-12-07T09:41:53;2.10;99.90
41427;DHT22;27171;51.812;19.514;2022-12-07T09:44:55;2.00;99.90
41427;DHT22;27171;51.812;19.514;2022-12-07T09:47:58;2.00;99.90
41427;DHT22;27171;51.812;19.514;2022-12-07T09:51:01;2.00;99.90
41427;DHT22;27171;51.812;19.514;2022-12-07T09:54:02;2.00;99.90
41427;DHT22;27171;51.812;19.514;2022-12-07T09:57:03;2.00;99.90
41427;DHT22;27171;51.812;19.514;2022-12-07T10:00:13;1.90;99.90
41427;DHT22;27171;51.812;19.514;2022-12-07T10:03:14;1.90;99.90
41427;DHT22;27171;51.812;19.514;2022-12-07T10:06:16;1.90;99.90
41427;DHT22;27171;51.812;19.514;2022-12-07T10:09:20;1.90;99.90
41427;DHT22;27171;51.812;19.514;2022-12-07T10:12:21;1.90;99.90
41427;DHT22;27171;51.812;19.514;2022-12-07T10:15:22;1.90;99.90
41427;DHT22;27171;51.812;19.514;2022-12-07T10:18:40;2.00;99.90
41427;DHT22;27171;51.812;19.514;2022-12-07T10:22:00;1.90;99.90
41427;DHT22;27171;51.812;19.514;2022-12-07T10:25:08;1.90;99.90
41427;DHT22;27171;51.812;19.514;2022-12-07T10:28:16;1.90;99.90
41427;DHT22;27171;51.812;19.514;2022-12-07T10:31:20;1.90;99.90
41427;DHT22;27171;51.812;19.514;2022-12-07T10:34:35;1.90;99.90
41427;DHT22;27171;51.812;19.514;2022-12-07T10:37:40;1.90;99.90
41427;DHT22;27171;51.812;19.514;2022-12-07T10:40:42;1.90;99.90
41427;DHT22;27171;51.812;19.514;2022-12-07T10:43:52;1.90;99.90
41427;DHT22;27171;51.812;19.514;2022-12-07T10:51:12;1.90;99.90
41427;DHT22;27171;51.812;19.514;2022-12-07T11:07:34;1.80;99.90
41427;DHT22;27171;51.812;19.514;2022-12-07T11:17:34;1.80;99.90
41427;DHT22;27171;51.812;19.514;2022-12-07T11:27:20;1.70;99.90
41427;DHT22;27171;51.812;19.514;2022-12-07T11:31:06;1.70;99.90
41427;DHT22;27171;51.812;19.514;2022-12-07T11:34:45;1.70;99.90
41427;DHT22;27171;51.812;19.514;2022-12-07T11:37:41;1.70;99.90
41427;DHT22;27171;51.812;19.514;2022-12-07T11:40:46;1.70;99.90
41427;DHT22;27171;51.812;19.514;2022-12-07T11:44:05;1.70;99.90
41427;DHT22;27171;51.812;19.514;2022-12-07T11:56:44;1.60;99.90
41427;DHT22;27171;51.812;19.514;2022-12-07T11:59:50;1.60;99.90
41427;DHT22;27171;51.812;19.514;2022-12-07T12:03:11;1.60;99.90
41427;DHT22;27171;51.812;19.514;2022-12-07T12:06:14;1.60;99.90
41427;DHT22;27171;51.812;19.514;2022-12-07T12:09:31;1.60;99.90
41427;DHT22;27171;51.812;19.514;2022-12-07T12:22:44;1.60;99.90
41427;DHT22;27171;51.812;19.514;2022-12-07T12:25:55;1.70;99.90
41427;DHT22;27171;51.812;19.514;2022-12-07T12:29:00;1.70;99.90
41427;DHT22;27171;51.812;19.514;2022-12-07T12:32:10;1.70;99.90
41427;DHT22;27171;51.812;19.514;2022-12-07T12:35:31;1.70;99.90
41427;DHT22;27171;51.812;19.514;2022-12-07T12:38:33;1.70;99.90
41427;DHT22;27171;51.812;19.514;2022-12-07T12:51:37;1.80;99.90
41427;DHT22;27171;51.812;19.514;2022-12-07T13:01:36;1.80;99.90
41427;DHT22;27171;51.812;19.514;2022-12-07T13:08:40;1.90;99.90
41427;DHT22;27171;51.812;19.514;2022-12-07T13:11:32;1.80;99.90
41427;DHT22;27171;51.812;19.514;2022-12-07T13:20:43;1.90;99.90
41427;DHT22;27171;51.812;19.514;2022-12-07T13:26:45;1.80;99.90
41427;DHT22;27171;51.812;19.514;2022-12-07T13:29:46;1.80;99.90
41427;DHT22;27171;51.812;19.514;2022-12-07T13:32:56;1.80;99.90
41427;DHT22;27171;51.812;19.514;2022-12-07T13:35:58;1.80;99.90
41427;DHT22;27171;51.812;19.514;2022-12-07T13:39:09;1.80;99.90
41427;DHT22;27171;51.812;19.514;2022-12-07T13:42:26;1.80;99.90
41427;DHT22;27171;51.812;19.514;2022-12-07T13:45:33;1.80;99.90
41427;DHT22;27171;51.812;19.514;2022-12-07T13:48:42;1.80;99.90
41427;DHT22;27171;51.812;19.514;2022-12-07T13:51:43;1.80;99.90
41427;DHT22;27171;51.812;19.514;2022-12-07T13:54:48;1.80;99.90
41427;DHT22;27171;51.812;19.514;2022-12-07T13:57:52;1.80;99.90
41427;DHT22;27171;51.812;19.514;2022-12-07T14:00:54;1.70;99.90
41427;DHT22;27171;51.812;19.514;2022-12-07T14:03:55;1.70;99.90
41427;DHT22;27171;51.812;19.514;2022-12-07T14:06:57;1.70;99.90
41427;DHT22;27171;51.812;19.514;2022-12-07T14:10:00;1.70;99.90
41427;DHT22;27171;51.812;19.514;2022-12-07T14:16:33;1.80;99.90
41427;DHT22;27171;51.812;19.514;2022-12-07T14:22:55;1.80;99.90
41427;DHT22;27171;51.812;19.514;2022-12-07T14:26:19;1.80;99.90
41427;DHT22;27171;51.812;19.514;2022-12-07T14:29:22;1.80;99.90
41427;DHT22;27171;51.812;19.514;2022-12-07T14:32:26;1.80;99.90
41427;DHT22;27171;51.812;19.514;2022-12-07T14:35:28;1.80;99.90
41427;DHT22;27171;51.812;19.514;2022-12-07T14:38:29;1.90;99.90
41427;DHT22;27171;51.812;19.514;2022-12-07T14:41:30;1.90;99.90
41427;DHT22;27171;51.812;19.514;2022-12-07T14:44:31;1.90;99.90
41427;DHT22;27171;51.812;19.514;2022-12-07T14:47:33;1.90;99.90
41427;DHT22;27171;51.812;19.514;2022-12-07T14:50:35;1.90;99.90
41427;DHT22;27171;51.812;19.514;2022-12-07T14:53:44;1.90;99.90
41427;DHT22;27171;51.812;19.514;2022-12-07T14:56:46;1.90;99.90
41427;DHT22;27171;51.812;19.514;2022-12-07T14:59:48;1.90;99.90
41427;DHT22;27171;51.812;19.514;2022-12-07T15:02:49;2.00;99.90
41427;DHT22;27171;51.812;19.514;2022-12-07T15:05:50;2.00;99.90
41427;DHT22;27171;51.812;19.514;2022-12-07T15:08:51;2.00;99.90
41427;DHT22;27171;51.812;19.514;2022-12-07T15:11:52;2.00;99.90
41427;DHT22;27171;51.812;19.514;2022-12-07T15:14:53;2.00;99.90
41427;DHT22;27171;51.812;19.514;2022-12-07T15:17:54;2.00;99.90
41427;DHT22;27171;51.812;19.514;2022-12-07T15:20:55;2.00;99.90
41427;DHT22;27171;51.812;19.514;2022-12-07T15:23:56;2.00;99.90
41427;DHT22;27171;51.812;19.514;2022-12-07T15:26:57;2.00;99.90
41427;DHT22;27171;51.812;19.514;2022-12-07T15:29:58;2.00;99.90
41427;DHT22;27171;51.812;19.514;2022-12-07T15:32:59;1.90;99.90
41427;DHT22;27171;51.812;19.514;2022-12-07T15:36:00;2.00;99.90
41427;DHT22;27171;51.812;19.514;2022-12-07T15:39:02;2.00;99.90
41427;DHT22;27171;51.812;19.514;2022-12-07T15:42:03;2.00;99.90
41427;DHT22;27171;51.812;19.514;2022-12-07T15:45:07;2.00;99.90
41427;DHT22;27171;51.812;19.514;2022-12-07T15:48:08;2.00;99.90
41427;DHT22;27171;51.812;19.514;2022-12-07T15:51:09;2.00;99.90
41427;DHT22;27171;51.812;19.514;2022-12-07T15:54:17;2.00;99.90
41427;DHT22;27171;51.812;19.514;2022-12-07T15:57:19;1.90;99.90
41427;DHT22;27171;51.812;19.514;2022-12-07T16:00:20;1.90;99.90
41427;DHT22;27171;51.812;19.514;2022-12-07T16:03:21;1.90;99.90
41427;DHT22;27171;51.812;19.514;2022-12-07T16:06:22;1.90;99.90
41427;DHT22;27171;51.812;19.514;2022-12-07T16:09:23;1.90;99.90
41427;DHT22;27171;51.812;19.514;2022-12-07T16:12:24;1.90;99.90
41427;DHT22;27171;51.812;19.514;2022-12-07T16:15:25;1.80;99.90
41427;DHT22;27171;51.812;19.514;2022-12-07T16:18:26;1.80;99.90
41427;DHT22;27171;51.812;19.514;2022-12-07T16:21:27;1.70;99.90
41427;DHT22;27171;51.812;19.514;2022-12-07T16:24:32;1.70;99.90
41427;DHT22;27171;51.812;19.514;2022-12-07T16:27:35;1.70;99.90
41427;DHT22;27171;51.812;19.514;2022-12-07T16:30:39;1.70;99.90
41427;DHT22;27171;51.812;19.514;2022-12-07T16:33:41;1.70;99.90
41427;DHT22;27171;51.812;19.514;2022-12-07T16:36:44;1.70;99.90
41427;DHT22;27171;51.812;19.514;2022-12-07T16:39:45;1.60;99.90
41427;DHT22;27171;51.812;19.514;2022-12-07T16:42:46;1.60;99.90
41427;DHT22;27171;51.812;19.514;2022-12-07T16:45:48;1.60;99.90
41427;DHT22;27171;51.812;19.514;2022-12-07T16:48:50;1.60;99.90
41427;DHT22;27171;51.812;19.514;2022-12-07T16:51:51;1.60;99.90
41427;DHT22;27171;51.812;19.514;2022-12-07T16:54:52;1.60;99.90
41427;DHT22;27171;51.812;19.514;2022-12-07T16:57:53;1.60;99.90
41427;DHT22;27171;51.812;19.514;2022-12-07T17:00:55;1.60;99.90
41427;DHT22;27171;51.812;19.514;2022-12-07T17:03:58;1.50;99.90
41427;DHT22;27171;51.812;19.514;2022-12-07T17:07:00;1.50;99.90
41427;DHT22;27171;51.812;19.514;2022-12-07T17:10:01;1.50;99.90
41427;DHT22;27171;51.812;19.514;2022-12-07T17:13:03;1.50;99.90
41427;DHT22;27171;51.812;19.514;2022-12-07T17:16:06;1.50;99.90
41427;DHT22;27171;51.812;19.514;2022-12-07T17:19:09;1.50;99.90
41427;DHT22;27171;51.812;19.514;2022-12-07T17:22:10;1.50;99.90
41427;DHT22;27171;51.812;19.514;2022-12-07T17:25:11;1.50;99.90
41427;DHT22;27171;51.812;19.514;2022-12-07T17:28:12;1.50;99.90
41427;DHT22;27171;51.812;19.514;2022-12-07T17:31:15;1.50;99.90
41427;DHT22;27171;51.812;19.514;2022-12-07T17:34:16;1.60;99.90
41427;DHT22;27171;51.812;19.514;2022-12-07T17:37:17;1.50;99.90
41427;DHT22;27171;51.812;19.514;2022-12-07T17:40:18;1.50;99.90
41427;DHT22;27171;51.812;19.514;2022-12-07T17:43:19;1.50;99.90
41427;DHT22;27171;51.812;19.514;2022-12-07T17:46:20;1.50;99.90
41427;DHT22;27171;51.812;19.514;2022-12-07T17:49:22;1.40;99.90
41427;DHT22;27171;51.812;19.514;2022-12-07T17:52:23;1.40;99.90
41427;DHT22;27171;51.812;19.514;2022-12-07T17:55:24;1.30;99.90
41427;DHT22;27171;51.812;19.514;2022-12-07T17:58:26;1.30;99.90
41427;DHT22;27171;51.812;19.514;2022-12-07T18:01:27;1.20;99.90
41427;DHT22;27171;51.812;19.514;2022-12-07T18:04:28;1.20;99.90
41427;DHT22;27171;51.812;19.514;2022-12-07T18:07:29;1.20;99.90
41427;DHT22;27171;51.812;19.514;2022-12-07T18:10:30;1.10;99.90
41427;DHT22;27171;51.812;19.514;2022-12-07T18:13:33;1.10;99.90
41427;DHT22;27171;51.812;19.514;2022-12-07T18:16:34;1.10;99.90
41427;DHT22;27171;51.812;19.514;2022-12-07T18:19:35;1.00;99.90
41427;DHT22;27171;51.812;19.514;2022-12-07T18:22:36;1.00;99.90
41427;DHT22;27171;51.812;19.514;2022-12-07T18:25:37;1.00;99.90
41427;DHT22;27171;51.812;19.514;2022-12-07T18:28:39;1.00;99.90
41427;DHT22;27171;51.812;19.514;2022-12-07T18:31:40;1.00;99.90
41427;DHT22;27171;51.812;19.514;2022-12-07T18:34:41;0.90;99.90
41427;DHT22;27171;51.812;19.514;2022-12-07T18:37:42;1.00;99.90
41427;DHT22;27171;51.812;19.514;2022-12-07T18:40:43;0.90;99.90
41427;DHT22;27171;51.812;19.514;2022-12-07T18:43:44;0.90;99.90
41427;DHT22;27171;51.812;19.514;2022-12-07T18:46:46;0.90;99.90
41427;DHT22;27171;51.812;19.514;2022-12-07T18:49:47;0.90;99.90
41427;DHT22;27171;51.812;19.514;2022-12-07T18:52:47;0.90;99.90
41427;DHT22;27171;51.812;19.514;2022-12-07T18:55:49;0.90;99.90
41427;DHT22;27171;51.812;19.514;2022-12-07T18:58:55;0.90;99.90
41427;DHT22;27171;51.812;19.514;2022-12-07T19:01:56;0.90;99.90
41427;DHT22;27171;51.812;19.514;2022-12-07T19:04:58;0.80;99.90
41427;DHT22;27171;51.812;19.514;2022-12-07T19:08:00;0.80;99.90
41427;DHT22;27171;51.812;19.514;2022-12-07T19:11:01;0.80;99.90
41427;DHT22;27171;51.812;19.514;2022-12-07T19:14:02;0.80;99.90
41427;DHT22;27171;51.812;19.514;2022-12-07T19:17:08;0.70;99.90
41427;DHT22;27171;51.812;19.514;2022-12-07T19:20:12;0.70;99.90
41427;DHT22;27171;51.812;19.514;2022-12-07T19:23:14;0.70;99.90
41427;DHT22;27171;51.812;19.514;2022-12-07T19:26:15;0.70;99.90
41427;DHT22;27171;51.812;19.514;2022-12-07T19:29:15;0.70;99.90
41427;DHT22;27171;51.812;19.514;2022-12-07T19:32:17;0.70;99.90
41427;DHT22;27171;51.812;19.514;2022-12-07T19:35:18;0.60;99.90
41427;DHT22;27171;51.812;19.514;2022-12-07T19:38:19;0.60;99.90
41427;DHT22;27171;51.812;19.514;2022-12-07T19:41:20;0.70;99.90
41427;DHT22;27171;51.812;19.514;2022-12-07T19:44:22;0.70;99.90
41427;DHT22;27171;51.812;19.514;2022-12-07T19:47:23;0.70;99.90
41427;DHT22;27171;51.812;19.514;2022-12-07T19:50:24;0.60;99.90
41427;DHT22;27171;51.812;19.514;2022-12-07T19:53:26;0.60;99.90
41427;DHT22;27171;51.812;19.514;2022-12-07T19:56:27;0.60;99.90
41427;DHT22;27171;51.812;19.514;2022-12-07T19:59:29;0.60;99.90
41427;DHT22;27171;51.812;19.514;2022-12-07T20:02:30;0.60;99.90
41427;DHT22;27171;51.812;19.514;2022-12-07T20:05:33;0.60;99.90
41427;DHT22;27171;51.812;19.514;2022-12-07T20:08:34;0.60;99.90
41427;DHT22;27171;51.812;19.514;2022-12-07T20:11:35;0.60;99.90
41427;DHT22;27171;51.812;19.514;2022-12-07T20:14:36;0.60;99.90
41427;DHT22;27171;51.812;19.514;2022-12-07T20:17:38;0.60;99.90
41427;DHT22;27171;51.812;19.514;2022-12-07T20:20:40;0.60;99.90
41427;DHT22;27171;51.812;19.514;2022-12-07T20:23:41;0.60;99.90
41427;DHT22;27171;51.812;19.514;2022-12-07T20:26:43;0.60;99.90
41427;DHT22;27171;51.812;19.514;2022-12-07T20:29:44;0.60;99.90
41427;DHT22;27171;51.812;19.514;2022-12-07T20:32:45;0.60;99.90
41427;DHT22;27171;51.812;19.514;2022-12-07T20:35:46;0.70;99.90
41427;DHT22;27171;51.812;19.514;2022-12-07T20:38:47;0.60;99.90
41427;DHT22;27171;51.812;19.514;2022-12-07T20:41:49;0.60;99.90
41427;DHT22;27171;51.812;19.514;2022-12-07T20:44:50;0.60;99.90
41427;DHT22;27171;51.812;19.514;2022-12-07T20:47:51;0.60;99.90
41427;DHT22;27171;51.812;19.514;2022-12-07T20:50:54;0.60;99.90
41427;DHT22;27171;51.812;19.514;2022-12-07T20:54:04;0.60;99.90
41427;DHT22;27171;51.812;19.514;2022-12-07T20:57:05;0.60;99.90
41427;DHT22;27171;51.812;19.514;2022-12-07T21:00:08;0.60;99.90
41427;DHT22;27171;51.812;19.514;2022-12-07T21:03:09;0.60;99.90
41427;DHT22;27171;51.812;19.514;2022-12-07T21:06:17;0.60;99.90
41427;DHT22;27171;51.812;19.514;2022-12-07T21:09:18;0.70;99.90
41427;DHT22;27171;51.812;19.514;2022-12-07T21:12:19;0.70;99.90
41427;DHT22;27171;51.812;19.514;2022-12-07T21:15:20;0.70;99.90
41427;DHT22;27171;51.812;19.514;2022-12-07T21:18:21;0.70;99.90